sensor_id;sensor_type;location;lat;lon;timestamp;pressure;altitude;pressure_sealevel;temperature;humidity
61345;BME280;47216;42.656;23.232;2023-04-21T00:00:04;93507.59;;;9.31;69.60
61345;BME280;47216;42.656;23.232;2023-04-21T00:02:35;93503.66;;;9.28;70.09
61345;BME280;47216;42.656;23.232;2023-04-21T00:05:05;93505.50;;;9.28;69.87
61345;BME280;47216;42.656;23.232;2023-04-21T00:07:34;93510.69;;;9.28;69.93
61345;BME280;47216;42.656;23.232;2023-04-21T00:10:04;93511.44;;;9.23;69.94
61345;BME280;47216;42.656;23.232;2023-04-21T00:12:31;93503.25;;;9.09;70.25
61345;BME280;47216;42.656;23.232;2023-04-21T00:14:57;93500.66;;;9.09;70.75
61345;BME280;47216;42.656;23.232;2023-04-21T00:17:25;93503.25;;;9.09;70.04
61345;BME280;47216;42.656;23.232;2023-04-21T00:19:53;93508.94;;;9.06;71.04
61345;BME280;47216;42.656;23.232;2023-04-21T00:22:20;93491.28;;;9.08;70.22
61345;BME280;47216;42.656;23.232;2023-04-21T00:24:47;93503.81;;;9.16;69.75
61345;BME280;47216;42.656;23.232;2023-04-21T00:27:14;93503.28;;;9.14;70.57
61345;BME280;47216;42.656;23.232;2023-04-21T00:29:41;93504.56;;;9.12;70.28
61345;BME280;47216;42.656;23.232;2023-04-21T00:32:08;93501.94;;;9.07;70.96
61345;BME280;47216;42.656;23.232;2023-04-21T00:34:36;93503.22;;;9.04;70.72
61345;BME280;47216;42.656;23.232;2023-04-21T00:37:04;93515.66;;;9.02;69.99
61345;BME280;47216;42.656;23.232;2023-04-21T00:39:31;93508.28;;;8.94;70.98
61345;BME280;47216;42.656;23.232;2023-04-21T00:41:58;93506.63;;;8.82;70.54
61345;BME280;47216;42.656;23.232;2023-04-21T00:44:25;93498.50;;;8.74;71.07
61345;BME280;47216;42.656;23.232;2023-04-21T00:46:52;93508.63;;;8.75;71.63
61345;BME280;47216;42.656;23.232;2023-04-21T00:49:19;93506.22;;;8.69;71.36
61345;BME280;47216;42.656;23.232;2023-04-21T00:51:46;93505.94;;;8.65;71.26
61345;BME280;47216;42.656;23.232;2023-04-21T00:54:15;93502.41;;;8.54;71.04
61345;BME280;47216;42.656;23.232;2023-04-21T00:56:43;93504.25;;;8.54;71.33
61345;BME280;47216;42.656;23.232;2023-04-21T00:59:09;93493.25;;;8.47;72.28
61345;BME280;47216;42.656;23.232;2023-04-21T01:01:36;93497.91;;;8.45;72.58
61345;BME280;47216;42.656;23.232;2023-04-21T01:04:04;93496.38;;;8.49;71.56
61345;BME280;47216;42.656;23.232;2023-04-21T01:06:32;93495.41;;;8.55;71.96
61345;BME280;47216;42.656;23.232;2023-04-21T01:08:59;93497.41;;;8.48;72.09
61345;BME280;47216;42.656;23.232;2023-04-21T01:11:27;93507.84;;;8.31;72.60
61345;BME280;47216;42.656;23.232;2023-04-21T01:13:54;93501.19;;;8.18;72.25
61345;BME280;47216;42.656;23.232;2023-04-21T01:16:22;93495.47;;;8.16;73.05
61345;BME280;47216;42.656;23.232;2023-04-21T01:18:49;93500.66;;;8.16;72.84
61345;BME280;47216;42.656;23.232;2023-04-21T01:21:17;93494.16;;;7.96;72.82
61345;BME280;47216;42.656;23.232;2023-04-21T01:23:46;93500.94;;;7.97;72.83
61345;BME280;47216;42.656;23.232;2023-04-21T01:26:12;93491.50;;;7.91;73.39
61345;BME280;47216;42.656;23.232;2023-04-21T01:28:39;93491.16;;;7.88;73.12
61345;BME280;47216;42.656;23.232;2023-04-21T01:31:06;93487.06;;;7.92;73.46
61345;BME280;47216;42.656;23.232;2023-04-21T01:33:33;93483.88;;;7.85;73.07
61345;BME280;47216;42.656;23.232;2023-04-21T01:36:00;93489.28;;;7.83;73.41
61345;BME280;47216;42.656;23.232;2023-04-21T01:38:27;93488.84;;;7.86;72.84
61345;BME280;47216;42.656;23.232;2023-04-21T01:40:55;93486.69;;;7.83;73.82
61345;BME280;47216;42.656;23.232;2023-04-21T01:43:23;93489.47;;;7.76;73.36
61345;BME280;47216;42.656;23.232;2023-04-21T01:45:51;93476.75;;;7.75;73.90
61345;BME280;47216;42.656;23.232;2023-04-21T01:48:18;93483.84;;;7.63;73.84
61345;BME280;47216;42.656;23.232;2023-04-21T01:50:45;93485.88;;;7.61;74.29
61345;BME280;47216;42.656;23.232;2023-04-21T01:53:12;93477.38;;;7.65;73.78
61345;BME280;47216;42.656;23.232;2023-04-21T01:55:39;93482.25;;;7.62;73.38
61345;BME280;47216;42.656;23.232;2023-04-21T01:58:07;93477.28;;;7.77;73.04
61345;BME280;47216;42.656;23.232;2023-04-21T02:00:34;93472.97;;;7.66;73.96
61345;BME280;47216;42.656;23.232;2023-04-21T02:03:01;93485.63;;;7.79;73.80
61345;BME280;47216;42.656;23.232;2023-04-21T02:05:28;93479.88;;;7.77;73.28
61345;BME280;47216;42.656;23.232;2023-04-21T02:07:55;93486.56;;;7.73;73.31
61345;BME280;47216;42.656;23.232;2023-04-21T02:10:22;93484.53;;;7.75;73.51
61345;BME280;47216;42.656;23.232;2023-04-21T02:12:48;93483.13;;;7.67;73.48
61345;BME280;47216;42.656;23.232;2023-04-21T02:15:17;93488.69;;;7.76;73.47
61345;BME280;47216;42.656;23.232;2023-04-21T02:17:44;93482.41;;;7.72;73.07
61345;BME280;47216;42.656;23.232;2023-04-21T02:20:11;93486.00;;;7.71;72.72
61345;BME280;47216;42.656;23.232;2023-04-21T02:22:39;93485.00;;;7.72;73.75
61345;BME280;47216;42.656;23.232;2023-04-21T02:25:06;93483.47;;;7.76;73.14
61345;BME280;47216;42.656;23.232;2023-04-21T02:27:33;93484.28;;;7.76;72.79
61345;BME280;47216;42.656;23.232;2023-04-21T02:30:00;93476.56;;;7.65;72.84
61345;BME280;47216;42.656;23.232;2023-04-21T02:32:28;93477.53;;;7.58;73.11
61345;BME280;47216;42.656;23.232;2023-04-21T02:34:55;93485.56;;;7.57;73.66
61345;BME280;47216;42.656;23.232;2023-04-21T02:37:22;93491.53;;;7.57;74.18
61345;BME280;47216;42.656;23.232;2023-04-21T02:39:49;93488.09;;;7.52;74.15
61345;BME280;47216;42.656;23.232;2023-04-21T02:42:16;93485.16;;;7.48;74.53
61345;BME280;47216;42.656;23.232;2023-04-21T02:44:42;93487.75;;;7.48;74.54
61345;BME280;47216;42.656;23.232;2023-04-21T02:47:09;93482.91;;;7.52;74.33
61345;BME280;47216;42.656;23.232;2023-04-21T02:49:40;93482.00;;;7.46;74.93
61345;BME280;47216;42.656;23.232;2023-04-21T02:52:07;93484.16;;;7.49;74.74
61345;BME280;47216;42.656;23.232;2023-04-21T02:54:34;93489.28;;;7.44;74.97
61345;BME280;47216;42.656;23.232;2023-04-21T02:57:01;93486.03;;;7.54;74.60
61345;BME280;47216;42.656;23.232;2023-04-21T02:59:28;93479.66;;;7.62;75.19
61345;BME280;47216;42.656;23.232;2023-04-21T03:01:55;93480.66;;;7.77;75.08
61345;BME280;47216;42.656;23.232;2023-04-21T03:04:21;93486.31;;;7.91;74.08
61345;BME280;47216;42.656;23.232;2023-04-21T03:06:51;93481.28;;;7.85;74.38
61345;BME280;47216;42.656;23.232;2023-04-21T03:09:18;93482.59;;;7.87;73.81
61345;BME280;47216;42.656;23.232;2023-04-21T03:11:45;93489.28;;;8.00;73.96
61345;BME280;47216;42.656;23.232;2023-04-21T03:14:12;93487.13;;;8.14;73.96
61345;BME280;47216;42.656;23.232;2023-04-21T03:16:39;93482.09;;;8.29;72.37
61345;BME280;47216;42.656;23.232;2023-04-21T03:19:05;93484.22;;;8.32;73.03
61345;BME280;47216;42.656;23.232;2023-04-21T03:21:35;93482.16;;;8.34;72.72
61345;BME280;47216;42.656;23.232;2023-04-21T03:24:05;93492.63;;;8.39;71.80
61345;BME280;47216;42.656;23.232;2023-04-21T03:26:31;93491.75;;;8.51;71.44
61345;BME280;47216;42.656;23.232;2023-04-21T03:28:58;93474.34;;;8.51;71.71
61345;BME280;47216;42.656;23.232;2023-04-21T03:31:25;93481.22;;;8.62;72.10
61345;BME280;47216;42.656;23.232;2023-04-21T03:33:52;93484.53;;;8.58;71.82
61345;BME280;47216;42.656;23.232;2023-04-21T03:36:19;93486.09;;;8.59;71.49
61345;BME280;47216;42.656;23.232;2023-04-21T03:38:46;93488.75;;;8.64;71.29
61345;BME280;47216;42.656;23.232;2023-04-21T03:41:14;93483.13;;;8.72;72.29
61345;BME280;47216;42.656;23.232;2023-04-21T03:43:41;93500.34;;;8.78;70.68
61345;BME280;47216;42.656;23.232;2023-04-21T03:46:16;93493.38;;;8.84;70.03
61345;BME280;47216;42.656;23.232;2023-04-21T03:48:43;93496.38;;;8.98;70.49
61345;BME280;47216;42.656;23.232;2023-04-21T03:51:09;93493.81;;;9.03;69.73
61345;BME280;47216;42.656;23.232;2023-04-21T03:53:36;93494.63;;;9.03;70.43
61345;BME280;47216;42.656;23.232;2023-04-21T03:56:03;93498.94;;;8.93;70.88
61345;BME280;47216;42.656;23.232;2023-04-21T03:58:32;93505.66;;;8.89;71.11
61345;BME280;47216;42.656;23.232;2023-04-21T04:00:59;93503.03;;;8.89;71.16
61345;BME280;47216;42.656;23.232;2023-04-21T04:03:25;93505.97;;;8.92;70.17
61345;BME280;47216;42.656;23.232;2023-04-21T04:05:52;93505.25;;;9.02;70.01
61345;BME280;47216;42.656;23.232;2023-04-21T04:08:19;93509.00;;;9.11;70.59
61345;BME280;47216;42.656;23.232;2023-04-21T04:10:46;93503.59;;;9.18;69.54
61345;BME280;47216;42.656;23.232;2023-04-21T04:13:13;93513.28;;;9.28;69.32
61345;BME280;47216;42.656;23.232;2023-04-21T04:15:41;93520.94;;;9.39;69.69
61345;BME280;47216;42.656;23.232;2023-04-21T04:18:08;93507.69;;;9.41;69.42
61345;BME280;47216;42.656;23.232;2023-04-21T04:20:35;93525.91;;;9.41;69.45
61345;BME280;47216;42.656;23.232;2023-04-21T04:23:02;93522.06;;;9.49;68.92
61345;BME280;47216;42.656;23.232;2023-04-21T04:25:29;93532.81;;;9.57;68.68
61345;BME280;47216;42.656;23.232;2023-04-21T04:27:56;93524.72;;;9.59;68.49
61345;BME280;47216;42.656;23.232;2023-04-21T04:30:23;93533.38;;;9.64;69.23
61345;BME280;47216;42.656;23.232;2023-04-21T04:32:53;93530.22;;;9.62;69.53
61345;BME280;47216;42.656;23.232;2023-04-21T04:35:22;93533.41;;;9.70;68.21
61345;BME280;47216;42.656;23.232;2023-04-21T04:37:49;93532.38;;;9.71;68.25
61345;BME280;47216;42.656;23.232;2023-04-21T04:40:16;93534.50;;;9.79;68.59
61345;BME280;47216;42.656;23.232;2023-04-21T04:42:44;93531.72;;;9.91;68.51
61345;BME280;47216;42.656;23.232;2023-04-21T04:45:13;93538.25;;;9.93;66.84
61345;BME280;47216;42.656;23.232;2023-04-21T04:47:41;93547.13;;;9.92;67.02
61345;BME280;47216;42.656;23.232;2023-04-21T04:50:09;93550.28;;;9.99;66.62
61345;BME280;47216;42.656;23.232;2023-04-21T04:52:36;93542.16;;;9.96;66.82
61345;BME280;47216;42.656;23.232;2023-04-21T04:55:03;93542.44;;;9.94;66.38
61345;BME280;47216;42.656;23.232;2023-04-21T04:57:30;93541.50;;;10.10;66.02
61345;BME280;47216;42.656;23.232;2023-04-21T04:59:57;93543.38;;;10.20;66.27
61345;BME280;47216;42.656;23.232;2023-04-21T05:02:23;93541.66;;;10.31;66.66
61345;BME280;47216;42.656;23.232;2023-04-21T05:04:51;93548.22;;;10.44;66.61
61345;BME280;47216;42.656;23.232;2023-04-21T05:07:19;93544.28;;;10.41;66.37
61345;BME280;47216;42.656;23.232;2023-04-21T05:09:46;93545.66;;;10.49;65.65
61345;BME280;47216;42.656;23.232;2023-04-21T05:12:12;93537.59;;;10.56;65.30
61345;BME280;47216;42.656;23.232;2023-04-21T05:14:39;93543.34;;;10.63;65.82
61345;BME280;47216;42.656;23.232;2023-04-21T05:17:06;93550.16;;;10.74;65.47
61345;BME280;47216;42.656;23.232;2023-04-21T05:19:34;93544.97;;;10.74;65.27
61345;BME280;47216;42.656;23.232;2023-04-21T05:22:01;93542.63;;;10.78;64.92
61345;BME280;47216;42.656;23.232;2023-04-21T05:24:32;93550.72;;;10.81;65.50
61345;BME280;47216;42.656;23.232;2023-04-21T05:26:59;93547.59;;;10.79;65.23
61345;BME280;47216;42.656;23.232;2023-04-21T05:29:27;93530.63;;;10.77;65.27
61345;BME280;47216;42.656;23.232;2023-04-21T05:31:54;93542.94;;;10.86;64.80
61345;BME280;47216;42.656;23.232;2023-04-21T05:34:20;93537.97;;;10.90;64.51
61345;BME280;47216;42.656;23.232;2023-04-21T05:36:47;93542.44;;;11.00;64.27
61345;BME280;47216;42.656;23.232;2023-04-21T05:39:14;93546.09;;;10.99;64.21
61345;BME280;47216;42.656;23.232;2023-04-21T05:41:43;93539.81;;;11.00;63.75
61345;BME280;47216;42.656;23.232;2023-04-21T05:44:10;93541.91;;;10.98;64.21
61345;BME280;47216;42.656;23.232;2023-04-21T05:46:37;93539.84;;;11.05;63.95
61345;BME280;47216;42.656;23.232;2023-04-21T05:49:04;93539.56;;;10.96;64.30
61345;BME280;47216;42.656;23.232;2023-04-21T05:51:31;93536.47;;;11.09;63.69
61345;BME280;47216;42.656;23.232;2023-04-21T05:53:57;93539.34;;;11.13;63.72
61345;BME280;47216;42.656;23.232;2023-04-21T05:56:24;93540.41;;;11.22;63.62
61345;BME280;47216;42.656;23.232;2023-04-21T05:58:52;93540.94;;;11.29;63.47
61345;BME280;47216;42.656;23.232;2023-04-21T06:01:20;93532.59;;;11.38;63.39
61345;BME280;47216;42.656;23.232;2023-04-21T06:03:46;93535.72;;;11.50;62.91
61345;BME280;47216;42.656;23.232;2023-04-21T06:06:14;93535.22;;;11.53;62.83
61345;BME280;47216;42.656;23.232;2023-04-21T06:08:41;93548.81;;;11.65;62.86
61345;BME280;47216;42.656;23.232;2023-04-21T06:11:08;93530.50;;;11.70;62.70
61345;BME280;47216;42.656;23.232;2023-04-21T06:13:35;93538.63;;;11.74;62.73
61345;BME280;47216;42.656;23.232;2023-04-21T06:16:04;93527.41;;;11.78;62.28
61345;BME280;47216;42.656;23.232;2023-04-21T06:18:31;93540.16;;;11.80;62.09
61345;BME280;47216;42.656;23.232;2023-04-21T06:20:57;93531.03;;;11.77;61.72
61345;BME280;47216;42.656;23.232;2023-04-21T06:23:24;93546.19;;;11.81;62.05
61345;BME280;47216;42.656;23.232;2023-04-21T06:26:01;93541.47;;;11.83;62.30
61345;BME280;47216;42.656;23.232;2023-04-21T06:28:29;93531.56;;;11.90;61.75
61345;BME280;47216;42.656;23.232;2023-04-21T06:30:56;93537.56;;;11.85;62.00
61345;BME280;47216;42.656;23.232;2023-04-21T06:33:25;93539.16;;;11.91;61.47
61345;BME280;47216;42.656;23.232;2023-04-21T06:35:52;93526.88;;;12.02;61.15
61345;BME280;47216;42.656;23.232;2023-04-21T06:38:19;93533.66;;;12.03;60.45
61345;BME280;47216;42.656;23.232;2023-04-21T06:40:46;93533.91;;;11.96;60.84
61345;BME280;47216;42.656;23.232;2023-04-21T06:43:13;93526.38;;;11.95;60.95
61345;BME280;47216;42.656;23.232;2023-04-21T06:45:40;93519.81;;;11.97;60.72
61345;BME280;47216;42.656;23.232;2023-04-21T06:48:07;93522.69;;;12.06;60.45
61345;BME280;47216;42.656;23.232;2023-04-21T06:50:36;93524.50;;;12.11;60.77
61345;BME280;47216;42.656;23.232;2023-04-21T06:53:02;93527.09;;;12.16;60.79
61345;BME280;47216;42.656;23.232;2023-04-21T06:55:29;93537.03;;;12.29;60.99
61345;BME280;47216;42.656;23.232;2023-04-21T06:57:56;93528.91;;;12.26;61.03
61345;BME280;47216;42.656;23.232;2023-04-21T07:00:23;93522.88;;;12.35;60.09
61345;BME280;47216;42.656;23.232;2023-04-21T07:02:49;93516.34;;;12.33;60.35
61345;BME280;47216;42.656;23.232;2023-04-21T07:05:16;93526.78;;;12.43;60.10
61345;BME280;47216;42.656;23.232;2023-04-21T07:07:44;93510.78;;;12.50;59.96
61345;BME280;47216;42.656;23.232;2023-04-21T07:10:12;93519.69;;;12.49;59.62
61345;BME280;47216;42.656;23.232;2023-04-21T07:12:43;93511.06;;;12.53;59.68
61345;BME280;47216;42.656;23.232;2023-04-21T07:15:10;93531.41;;;12.67;59.24
61345;BME280;47216;42.656;23.232;2023-04-21T07:17:37;93524.31;;;12.72;59.99
61345;BME280;47216;42.656;23.232;2023-04-21T07:20:06;93518.25;;;12.82;59.92
61345;BME280;47216;42.656;23.232;2023-04-21T07:22:33;93515.09;;;12.90;59.24
61345;BME280;47216;42.656;23.232;2023-04-21T07:25:02;93512.22;;;12.87;58.99
61345;BME280;47216;42.656;23.232;2023-04-21T07:27:30;93525.03;;;12.88;58.77
61345;BME280;47216;42.656;23.232;2023-04-21T07:29:57;93523.94;;;12.99;58.44
61345;BME280;47216;42.656;23.232;2023-04-21T07:32:24;93528.19;;;12.85;58.39
61345;BME280;47216;42.656;23.232;2023-04-21T07:34:51;93537.84;;;12.85;58.74
61345;BME280;47216;42.656;23.232;2023-04-21T07:37:18;93534.00;;;12.72;59.44
61345;BME280;47216;42.656;23.232;2023-04-21T07:39:46;93525.09;;;12.73;59.53
61345;BME280;47216;42.656;23.232;2023-04-21T07:42:15;93535.03;;;12.71;59.06
61345;BME280;47216;42.656;23.232;2023-04-21T07:44:41;93529.84;;;12.66;59.20
61345;BME280;47216;42.656;23.232;2023-04-21T07:47:08;93532.41;;;12.76;59.19
61345;BME280;47216;42.656;23.232;2023-04-21T07:49:35;93521.56;;;12.98;57.92
61345;BME280;47216;42.656;23.232;2023-04-21T07:52:03;93532.78;;;13.09;58.57
61345;BME280;47216;42.656;23.232;2023-04-21T07:54:30;93519.31;;;13.25;58.14
61345;BME280;47216;42.656;23.232;2023-04-21T07:56:56;93531.03;;;13.43;58.09
61345;BME280;47216;42.656;23.232;2023-04-21T07:59:25;93528.31;;;13.54;56.93
61345;BME280;47216;42.656;23.232;2023-04-21T08:01:52;93533.03;;;13.57;57.04
61345;BME280;47216;42.656;23.232;2023-04-21T08:04:18;93527.34;;;13.50;56.54
61345;BME280;47216;42.656;23.232;2023-04-21T08:06:46;93528.41;;;13.43;56.80
61345;BME280;47216;42.656;23.232;2023-04-21T08:09:13;93530.00;;;13.39;57.12
61345;BME280;47216;42.656;23.232;2023-04-21T08:11:39;93529.25;;;13.34;57.49
61345;BME280;47216;42.656;23.232;2023-04-21T08:14:06;93521.13;;;13.35;57.61
61345;BME280;47216;42.656;23.232;2023-04-21T08:16:37;93529.22;;;13.39;57.87
61345;BME280;47216;42.656;23.232;2023-04-21T08:19:06;93521.63;;;13.42;57.45
61345;BME280;47216;42.656;23.232;2023-04-21T08:21:33;93517.66;;;13.45;56.70
61345;BME280;47216;42.656;23.232;2023-04-21T08:24:00;93507.88;;;13.56;57.75
61345;BME280;47216;42.656;23.232;2023-04-21T08:26:27;93530.84;;;13.69;57.24
61345;BME280;47216;42.656;23.232;2023-04-21T08:28:54;93518.16;;;13.81;55.85
61345;BME280;47216;42.656;23.232;2023-04-21T08:31:22;93515.41;;;13.97;56.23
61345;BME280;47216;42.656;23.232;2023-04-21T08:33:50;93510.63;;;14.04;55.35
61345;BME280;47216;42.656;23.232;2023-04-21T08:36:17;93504.09;;;14.01;55.41
61345;BME280;47216;42.656;23.232;2023-04-21T08:38:44;93519.00;;;14.06;54.96
61345;BME280;47216;42.656;23.232;2023-04-21T08:41:12;93510.16;;;13.97;55.20
61345;BME280;47216;42.656;23.232;2023-04-21T08:43:39;93502.31;;;13.97;54.76
61345;BME280;47216;42.656;23.232;2023-04-21T08:46:07;93514.22;;;14.13;55.65
61345;BME280;47216;42.656;23.232;2023-04-21T08:48:35;93511.97;;;14.25;55.61
61345;BME280;47216;42.656;23.232;2023-04-21T08:51:06;93507.88;;;14.43;55.17
61345;BME280;47216;42.656;23.232;2023-04-21T08:53:34;93511.31;;;14.39;54.96
61345;BME280;47216;42.656;23.232;2023-04-21T08:56:02;93510.44;;;14.24;55.05
61345;BME280;47216;42.656;23.232;2023-04-21T08:58:29;93507.31;;;14.22;54.71
61345;BME280;47216;42.656;23.232;2023-04-21T09:00:56;93508.31;;;14.26;55.47
61345;BME280;47216;42.656;23.232;2023-04-21T09:03:25;93499.94;;;14.24;54.83
61345;BME280;47216;42.656;23.232;2023-04-21T09:05:59;93493.91;;;14.48;54.62
61345;BME280;47216;42.656;23.232;2023-04-21T09:08:28;93496.47;;;14.53;54.87
61345;BME280;47216;42.656;23.232;2023-04-21T09:10:55;93489.41;;;14.54;54.22
61345;BME280;47216;42.656;23.232;2023-04-21T09:13:29;93479.81;;;14.68;53.94
61345;BME280;47216;42.656;23.232;2023-04-21T09:15:56;93498.28;;;14.82;53.99
61345;BME280;47216;42.656;23.232;2023-04-21T09:18:25;93495.22;;;14.75;54.26
61345;BME280;47216;42.656;23.232;2023-04-21T09:21:04;93485.41;;;14.61;53.54
61345;BME280;47216;42.656;23.232;2023-04-21T09:23:38;93477.09;;;14.54;53.19
61345;BME280;47216;42.656;23.232;2023-04-21T09:26:06;93477.47;;;14.66;53.39
61345;BME280;47216;42.656;23.232;2023-04-21T09:28:33;93475.25;;;14.74;53.76
61345;BME280;47216;42.656;23.232;2023-04-21T09:30:59;93458.13;;;14.81;53.95
61345;BME280;47216;42.656;23.232;2023-04-21T09:33:26;93473.31;;;14.84;52.71
61345;BME280;47216;42.656;23.232;2023-04-21T09:35:53;93469.91;;;14.84;52.29
61345;BME280;47216;42.656;23.232;2023-04-21T09:38:21;93465.06;;;14.91;53.16
61345;BME280;47216;42.656;23.232;2023-04-21T09:40:57;93470.53;;;14.95;53.06
61345;BME280;47216;42.656;23.232;2023-04-21T09:43:24;93459.41;;;14.84;52.35
61345;BME280;47216;42.656;23.232;2023-04-21T09:45:52;93462.16;;;14.92;53.09
61345;BME280;47216;42.656;23.232;2023-04-21T09:48:21;93468.63;;;15.00;52.85
61345;BME280;47216;42.656;23.232;2023-04-21T09:50:52;93463.16;;;14.97;52.67
61345;BME280;47216;42.656;23.232;2023-04-21T09:53:20;93464.56;;;15.08;53.07
61345;BME280;47216;42.656;23.232;2023-04-21T09:55:50;93470.72;;;15.36;52.39
61345;BME280;47216;42.656;23.232;2023-04-21T09:58:22;93458.44;;;15.50;51.36
61345;BME280;47216;42.656;23.232;2023-04-21T10:00:52;93451.03;;;15.71;51.08
61345;BME280;47216;42.656;23.232;2023-04-21T10:03:26;93454.09;;;15.92;51.12
61345;BME280;47216;42.656;23.232;2023-04-21T10:05:54;93452.84;;;16.17;51.02
61345;BME280;47216;42.656;23.232;2023-04-21T10:08:21;93453.75;;;16.41;48.80
61345;BME280;47216;42.656;23.232;2023-04-21T10:10:48;93443.09;;;16.46;48.78
61345;BME280;47216;42.656;23.232;2023-04-21T10:13:17;93440.97;;;16.48;48.54
61345;BME280;47216;42.656;23.232;2023-04-21T10:15:45;93444.47;;;16.43;47.41
61345;BME280;47216;42.656;23.232;2023-04-21T10:18:15;93432.38;;;16.14;47.90
61345;BME280;47216;42.656;23.232;2023-04-21T10:20:55;93445.03;;;16.12;48.81
61345;BME280;47216;42.656;23.232;2023-04-21T10:23:27;93451.16;;;16.08;49.17
61345;BME280;47216;42.656;23.232;2023-04-21T10:25:55;93442.69;;;15.97;49.05
61345;BME280;47216;42.656;23.232;2023-04-21T10:28:41;93452.16;;;16.12;49.50
61345;BME280;47216;42.656;23.232;2023-04-21T10:31:25;93441.34;;;16.00;49.61
61345;BME280;47216;42.656;23.232;2023-04-21T10:34:13;93450.38;;;15.93;49.57
61345;BME280;47216;42.656;23.232;2023-04-21T10:37:07;93447.72;;;15.80;48.67
61345;BME280;47216;42.656;23.232;2023-04-21T10:39:41;93446.13;;;15.65;49.48
61345;BME280;47216;42.656;23.232;2023-04-21T10:42:22;93452.97;;;15.80;50.84
61345;BME280;47216;42.656;23.232;2023-04-21T10:44:51;93443.81;;;15.77;50.59
61345;BME280;47216;42.656;23.232;2023-04-21T10:47:25;93449.13;;;15.91;50.03
61345;BME280;47216;42.656;23.232;2023-04-21T10:49:53;93448.84;;;15.92;49.98
61345;BME280;47216;42.656;23.232;2023-04-21T10:52:21;93449.88;;;15.91;49.67
61345;BME280;47216;42.656;23.232;2023-04-21T10:55:07;93449.78;;;15.96;49.19
61345;BME280;47216;42.656;23.232;2023-04-21T10:57:38;93450.88;;;15.95;49.48
61345;BME280;47216;42.656;23.232;2023-04-21T11:00:07;93453.22;;;15.97;48.60
61345;BME280;47216;42.656;23.232;2023-04-21T11:02:36;93442.97;;;15.95;48.44
61345;BME280;47216;42.656;23.232;2023-04-21T11:05:04;93440.34;;;15.95;47.91
61345;BME280;47216;42.656;23.232;2023-04-21T11:07:31;93442.31;;;16.04;48.25
61345;BME280;47216;42.656;23.232;2023-04-21T11:09:59;93434.72;;;16.16;48.80
61345;BME280;47216;42.656;23.232;2023-04-21T11:12:28;93439.97;;;16.16;48.07
61345;BME280;47216;42.656;23.232;2023-04-21T11:14:55;93434.72;;;16.16;46.49
61345;BME280;47216;42.656;23.232;2023-04-21T11:17:23;93430.25;;;16.30;46.66
61345;BME280;47216;42.656;23.232;2023-04-21T11:19:52;93441.25;;;16.32;47.09
61345;BME280;47216;42.656;23.232;2023-04-21T11:22:22;93428.47;;;16.12;46.82
61345;BME280;47216;42.656;23.232;2023-04-21T11:24:50;93431.09;;;16.12;47.31
61345;BME280;47216;42.656;23.232;2023-04-21T11:27:17;93440.53;;;15.85;48.39
61345;BME280;47216;42.656;23.232;2023-04-21T11:29:44;93439.09;;;15.60;48.52
61345;BME280;47216;42.656;23.232;2023-04-21T11:32:12;93432.13;;;15.37;49.00
61345;BME280;47216;42.656;23.232;2023-04-21T11:34:39;93441.59;;;15.51;49.08
61345;BME280;47216;42.656;23.232;2023-04-21T11:37:08;93448.34;;;15.58;49.25
61345;BME280;47216;42.656;23.232;2023-04-21T11:39:39;93450.50;;;15.69;49.41
61345;BME280;47216;42.656;23.232;2023-04-21T11:42:06;93450.78;;;15.68;49.81
61345;BME280;47216;42.656;23.232;2023-04-21T11:44:34;93448.94;;;15.68;49.47
61345;BME280;47216;42.656;23.232;2023-04-21T11:47:11;93449.25;;;15.67;49.83
61345;BME280;47216;42.656;23.232;2023-04-21T11:49:43;93446.47;;;15.77;49.65
61345;BME280;47216;42.656;23.232;2023-04-21T11:52:19;93437.97;;;15.80;49.41
61345;BME280;47216;42.656;23.232;2023-04-21T11:54:46;93437.22;;;15.80;49.24
61345;BME280;47216;42.656;23.232;2023-04-21T11:57:17;93441.31;;;15.86;48.65
61345;BME280;47216;42.656;23.232;2023-04-21T11:59:44;93437.81;;;15.90;48.18
61345;BME280;47216;42.656;23.232;2023-04-21T12:02:12;93450.69;;;16.06;48.51
61345;BME280;47216;42.656;23.232;2023-04-21T12:04:56;93435.31;;;16.13;48.50
61345;BME280;47216;42.656;23.232;2023-04-21T12:07:24;93436.88;;;16.28;48.96
61345;BME280;47216;42.656;23.232;2023-04-21T12:09:51;93439.50;;;16.28;47.78
61345;BME280;47216;42.656;23.232;2023-04-21T12:12:18;93435.31;;;16.27;47.16
61345;BME280;47216;42.656;23.232;2023-04-21T12:14:45;93445.34;;;16.25;47.02
61345;BME280;47216;42.656;23.232;2023-04-21T12:17:11;93439.50;;;16.14;46.23
61345;BME280;47216;42.656;23.232;2023-04-21T12:19:39;93446.38;;;15.96;46.96
61345;BME280;47216;42.656;23.232;2023-04-21T12:22:07;93436.56;;;16.02;47.05
61345;BME280;47216;42.656;23.232;2023-04-21T12:24:36;93443.50;;;16.11;47.27
61345;BME280;47216;42.656;23.232;2023-04-21T12:27:04;93439.97;;;16.16;47.54
61345;BME280;47216;42.656;23.232;2023-04-21T12:29:31;93440.66;;;16.22;47.14
61345;BME280;47216;42.656;23.232;2023-04-21T12:32:00;93437.84;;;16.18;47.67
61345;BME280;47216;42.656;23.232;2023-04-21T12:34:26;93439.78;;;16.26;47.50
61345;BME280;47216;42.656;23.232;2023-04-21T12:36:53;93434.91;;;16.33;47.18
61345;BME280;47216;42.656;23.232;2023-04-21T12:39:20;93438.22;;;16.39;47.02
61345;BME280;47216;42.656;23.232;2023-04-21T12:41:49;93434.13;;;16.47;46.80
61345;BME280;47216;42.656;23.232;2023-04-21T12:44:17;93436.25;;;16.45;47.06
61345;BME280;47216;42.656;23.232;2023-04-21T12:46:43;93435.09;;;16.51;46.92
61345;BME280;47216;42.656;23.232;2023-04-21T12:49:10;93441.34;;;16.55;46.56
61345;BME280;47216;42.656;23.232;2023-04-21T12:51:37;93432.75;;;16.63;46.22
61345;BME280;47216;42.656;23.232;2023-04-21T12:54:04;93427.31;;;16.59;46.92
61345;BME280;47216;42.656;23.232;2023-04-21T12:56:31;93428.25;;;16.77;46.79